createdAt,value
2023-02-20T00:00:12.888Z,49.4
2023-02-20T00:01:26.596Z,49.4
2023-02-20T00:02:39.348Z,49.4
2023-02-20T00:03:43.139Z,49.4
2023-02-20T00:04:55.946Z,49.4
2023-02-20T00:06:09.864Z,49.4
2023-02-20T00:07:12.839Z,49.4
2023-02-20T00:08:26.585Z,49.4
2023-02-20T00:09:39.281Z,49.3
2023-02-20T00:10:42.567Z,49.4
2023-02-20T00:11:55.271Z,49.3
2023-02-20T00:13:08.581Z,49.3
2023-02-20T00:14:21.289Z,49.4
2023-02-20T00:15:25.050Z,49.3
2023-02-20T00:16:37.818Z,49.4
2023-02-20T00:17:51.597Z,49.3
2023-02-20T00:18:54.361Z,49.3
2023-02-20T00:20:08.075Z,49.3
2023-02-20T00:21:20.742Z,49.3
2023-02-20T00:22:24.090Z,49.3
2023-02-20T00:23:36.811Z,49.3
2023-02-20T00:24:50.060Z,49.3
2023-02-20T00:26:02.770Z,49.2
2023-02-20T00:27:07.069Z,49.2
2023-02-20T00:28:19.777Z,49.2
2023-02-20T00:29:34.640Z,49.2
2023-02-20T00:30:57.294Z,49.2
2023-02-20T00:31:51.079Z,49.2
2023-02-20T00:33:03.772Z,49.2
2023-02-20T00:34:07.568Z,49.2
2023-02-20T00:35:20.276Z,49.1
2023-02-20T00:36:33.576Z,49.1
2023-02-20T00:37:36.317Z,49.1
2023-02-20T00:38:49.586Z,49.1
2023-02-20T00:40:02.290Z,49.1
2023-02-20T00:41:15.688Z,49.1
2023-02-20T00:42:48.153Z,49.1
2023-02-20T00:43:31.617Z,49.1
2023-02-20T00:44:44.353Z,49.1
2023-02-20T00:45:48.076Z,49.1
2023-02-20T00:47:00.759Z,49.0
2023-02-20T00:48:14.109Z,49.0
2023-02-20T00:49:16.827Z,48.9
2023-02-20T00:50:30.074Z,48.9
2023-02-20T00:51:42.734Z,48.9
2023-02-20T00:52:56.070Z,48.9
2023-02-20T00:53:58.817Z,48.9
2023-02-20T00:55:12.115Z,48.9
2023-02-20T00:56:24.877Z,48.8
2023-02-20T00:57:38.578Z,48.9
2023-02-20T00:58:41.316Z,48.9
2023-02-20T00:59:55.086Z,48.9
2023-02-20T01:01:07.826Z,48.9
2023-02-20T01:02:11.108Z,48.8
2023-02-20T01:03:23.809Z,48.9
2023-02-20T01:04:37.122Z,48.9
2023-02-20T01:05:39.862Z,48.9
2023-02-20T01:06:53.568Z,48.9
2023-02-20T01:08:06.267Z,48.9
2023-02-20T01:09:19.600Z,48.9
2023-02-20T01:10:22.461Z,48.9
2023-02-20T01:11:36.084Z,48.9
2023-02-20T01:12:48.798Z,48.9
2023-02-20T01:13:52.086Z,48.9
2023-02-20T01:15:04.829Z,48.9
2023-02-20T01:16:18.195Z,48.9
2023-02-20T01:17:30.968Z,48.9
2023-02-20T01:18:34.623Z,48.9
2023-02-20T01:19:47.334Z,48.9
2023-02-20T01:21:01.108Z,48.9
2023-02-20T01:22:03.864Z,48.8
2023-02-20T01:23:17.585Z,48.9
2023-02-20T01:24:30.281Z,48.8
2023-02-20T01:25:33.620Z,48.9
2023-02-20T01:26:46.342Z,48.8
2023-02-20T01:28:00.116Z,48.8
2023-02-20T01:29:02.852Z,48.9
2023-02-20T01:30:16.645Z,48.9
2023-02-20T01:31:29.545Z,48.8
2023-02-20T01:32:43.075Z,48.8
2023-02-20T01:33:45.833Z,48.8
2023-02-20T01:34:59.126Z,48.8
2023-02-20T01:36:12.113Z,48.8
2023-02-20T01:37:15.587Z,48.8
2023-02-20T01:38:28.294Z,48.7
2023-02-20T01:39:41.613Z,48.8
2023-02-20T01:40:54.341Z,48.7
2023-02-20T01:41:58.138Z,48.8
2023-02-20T01:43:10.823Z,48.8
2023-02-20T01:44:24.113Z,48.8
2023-02-20T01:45:26.856Z,48.8
2023-02-20T01:46:40.184Z,48.8
2023-02-20T01:47:52.948Z,48.8
2023-02-20T01:49:06.604Z,48.8
2023-02-20T01:50:09.330Z,48.8
2023-02-20T01:51:22.592Z,48.8
2023-02-20T01:52:35.302Z,48.8
2023-02-20T01:53:38.593Z,48.8
2023-02-20T01:54:51.300Z,48.8
2023-02-20T01:56:05.096Z,48.8
2023-02-20T01:57:07.978Z,48.8
2023-02-20T01:58:21.672Z,48.8
2023-02-20T01:59:34.378Z,48.7
2023-02-20T02:00:48.163Z,48.7
2023-02-20T02:01:51.016Z,48.8
2023-02-20T02:03:04.598Z,48.7
2023-02-20T02:04:17.395Z,48.7
2023-02-20T02:05:21.113Z,48.7
2023-02-20T02:06:33.815Z,48.7
2023-02-20T02:07:47.155Z,48.7
2023-02-20T02:08:50.084Z,48.7
2023-02-20T02:10:03.607Z,48.7
2023-02-20T02:11:16.316Z,48.7
2023-02-20T02:12:29.636Z,48.7
2023-02-20T02:13:42.370Z,48.7
2023-02-20T02:14:46.110Z,48.7
2023-02-20T02:15:58.849Z,48.7
2023-02-20T02:17:02.616Z,48.7
2023-02-20T02:18:15.335Z,48.7
2023-02-20T02:19:28.616Z,48.6
2023-02-20T02:20:41.329Z,48.6
2023-02-20T02:21:45.108Z,48.6
2023-02-20T02:22:57.809Z,48.5
2023-02-20T02:24:11.086Z,48.6
2023-02-20T02:25:13.863Z,48.6
2023-02-20T02:26:27.666Z,48.5
2023-02-20T02:27:40.435Z,48.5
2023-02-20T02:28:54.106Z,48.5
2023-02-20T02:29:56.940Z,48.5
2023-02-20T02:31:10.711Z,48.5
2023-02-20T02:32:23.476Z,48.5
2023-02-20T02:33:27.139Z,48.5
2023-02-20T02:34:39.845Z,48.5
2023-02-20T02:35:53.107Z,48.5
2023-02-20T02:36:55.869Z,48.5
2023-02-20T02:38:09.111Z,48.5
2023-02-20T02:39:21.840Z,48.5
2023-02-20T02:40:25.590Z,48.5
2023-02-20T02:41:38.322Z,48.5
2023-02-20T02:42:51.596Z,48.5
2023-02-20T02:44:04.312Z,48.5
2023-02-20T02:45:07.604Z,48.4
2023-02-20T02:46:20.317Z,48.5
2023-02-20T02:47:33.644Z,48.5
2023-02-20T02:48:36.388Z,48.5
2023-02-20T02:49:50.116Z,48.5
2023-02-20T02:51:02.842Z,48.5
2023-02-20T02:52:16.625Z,48.5
2023-02-20T02:53:19.408Z,48.5
2023-02-20T02:54:33.095Z,48.4
2023-02-20T02:55:45.804Z,48.4
2023-02-20T02:56:49.645Z,48.5
2023-02-20T02:58:02.388Z,48.5
2023-02-20T02:59:16.117Z,48.4
2023-02-20T03:00:18.825Z,48.5
2023-02-20T03:01:32.614Z,48.4
2023-02-20T03:02:45.763Z,48.4
2023-02-20T03:03:49.605Z,48.4
2023-02-20T03:05:02.337Z,48.4
2023-02-20T03:06:16.112Z,48.4
2023-02-20T03:07:18.876Z,48.4
2023-02-20T03:08:32.151Z,48.4
2023-02-20T03:09:44.879Z,48.3
2023-02-20T03:10:58.614Z,48.3
2023-02-20T03:12:01.380Z,48.3
2023-02-20T03:13:15.108Z,48.3
2023-02-20T03:14:27.826Z,48.3
2023-02-20T03:15:31.618Z,48.3
2023-02-20T03:16:44.389Z,48.3
2023-02-20T03:17:58.134Z,48.3
2023-02-20T03:19:00.897Z,48.2
2023-02-20T03:20:14.145Z,48.2
2023-02-20T03:21:26.868Z,48.2
2023-02-20T03:22:40.643Z,48.2
2023-02-20T03:23:43.420Z,48.2
2023-02-20T03:24:57.156Z,48.2
2023-02-20T03:26:09.873Z,48.2
2023-02-20T03:27:13.645Z,48.2
2023-02-20T03:28:26.373Z,48.2
2023-02-20T03:29:39.630Z,48.2
2023-02-20T03:30:52.347Z,48.2
2023-02-20T03:31:56.273Z,48.2
2023-02-20T03:33:09.059Z,48.2
2023-02-20T03:34:22.640Z,48.2
2023-02-20T03:35:25.433Z,48.2
2023-02-20T03:36:39.125Z,48.1
2023-02-20T03:37:51.840Z,48.1
2023-02-20T03:39:05.146Z,48.1
2023-02-20T03:40:07.912Z,48.1
2023-02-20T03:41:21.628Z,48.1
2023-02-20T03:42:34.348Z,48.1
2023-02-20T03:43:38.133Z,48.1
2023-02-20T03:44:50.854Z,48.0
2023-02-20T03:46:04.657Z,48.1
2023-02-20T03:47:07.499Z,48.1
2023-02-20T03:48:21.625Z,48.1
2023-02-20T03:49:34.359Z,48.1
2023-02-20T03:50:38.130Z,48.1
2023-02-20T03:51:50.628Z,48.1
2023-02-20T03:53:04.131Z,48.2
2023-02-20T03:54:16.608Z,48.1
2023-02-20T03:55:20.117Z,48.2
2023-02-20T03:56:32.907Z,48.2
2023-02-20T03:57:46.638Z,48.2
2023-02-20T03:58:49.411Z,48.1
2023-02-20T04:00:03.156Z,48.1
2023-02-20T04:01:15.920Z,48.1
2023-02-20T04:02:29.699Z,48.1
2023-02-20T04:03:32.613Z,48.2
2023-02-20T04:04:46.141Z,48.1
2023-02-20T04:05:58.889Z,48.1
2023-02-20T04:07:02.620Z,48.1
2023-02-20T04:08:15.363Z,48.1
2023-02-20T04:09:29.180Z,48.0
2023-02-20T04:10:31.964Z,48.1
2023-02-20T04:11:45.647Z,48.0
2023-02-20T04:13:08.244Z,48.0
2023-02-20T04:14:01.628Z,48.1
2023-02-20T04:15:14.368Z,48.0
2023-02-20T04:16:28.195Z,48.0
2023-02-20T04:17:40.996Z,48.0
2023-02-20T04:18:44.663Z,48.0
2023-02-20T04:19:57.398Z,48.0
2023-02-20T04:21:11.165Z,48.0
2023-02-20T04:22:13.919Z,48.0
2023-02-20T04:23:27.631Z,48.0
2023-02-20T04:24:40.380Z,47.9
2023-02-20T04:25:44.142Z,48.0
2023-02-20T04:26:57.262Z,47.9
2023-02-20T04:28:10.651Z,47.9
2023-02-20T04:29:13.408Z,47.9
2023-02-20T04:30:27.261Z,47.9
2023-02-20T04:31:40.098Z,47.9
2023-02-20T04:32:54.116Z,47.9
2023-02-20T04:34:06.623Z,47.9
2023-02-20T04:35:10.618Z,47.8
2023-02-20T04:36:23.347Z,47.8
2023-02-20T04:37:27.162Z,47.9
2023-02-20T04:38:39.850Z,47.8
2023-02-20T04:39:54.275Z,47.8
2023-02-20T04:40:57.108Z,47.8
2023-02-20T04:42:10.643Z,47.8
2023-02-20T04:43:23.381Z,47.8
2023-02-20T04:44:27.123Z,47.8
2023-02-20T04:45:39.870Z,47.7
2023-02-20T04:46:53.615Z,47.8
2023-02-20T04:47:56.378Z,47.7
2023-02-20T04:49:10.637Z,47.8
2023-02-20T04:50:23.433Z,47.7
2023-02-20T04:51:27.147Z,47.7
2023-02-20T04:52:39.890Z,47.7
2023-02-20T04:53:53.647Z,47.7
2023-02-20T04:55:06.370Z,47.7
2023-02-20T04:56:10.251Z,47.7
2023-02-20T04:57:23.037Z,47.7
2023-02-20T04:58:36.665Z,47.7
2023-02-20T04:59:39.428Z,47.7
2023-02-20T05:00:53.185Z,47.7
2023-02-20T05:02:05.909Z,47.7
2023-02-20T05:03:09.650Z,47.8
2023-02-20T05:04:23.405Z,47.8
2023-02-20T05:05:37.172Z,47.8
2023-02-20T05:06:39.915Z,47.8
2023-02-20T05:07:53.647Z,47.7
2023-02-20T05:09:06.404Z,47.7
2023-02-20T05:10:20.180Z,47.7
2023-02-20T05:11:22.933Z,47.7
2023-02-20T05:12:36.681Z,47.7
2023-02-20T05:13:49.384Z,47.7
2023-02-20T05:14:53.751Z,47.7
2023-02-20T05:16:08.075Z,47.7
2023-02-20T05:17:21.683Z,47.7
2023-02-20T05:18:24.448Z,47.7
2023-02-20T05:19:38.153Z,47.7
2023-02-20T05:20:50.862Z,47.7
2023-02-20T05:21:54.675Z,47.8
2023-02-20T05:23:07.385Z,47.8
2023-02-20T05:24:20.637Z,47.8
2023-02-20T05:25:23.458Z,47.9
2023-02-20T05:26:37.179Z,47.9
2023-02-20T05:27:49.884Z,47.9
2023-02-20T05:29:03.145Z,47.8
2023-02-20T05:30:05.974Z,47.9
2023-02-20T05:31:19.797Z,48.0
2023-02-20T05:32:32.571Z,47.9
2023-02-20T05:33:36.146Z,47.9
2023-02-20T05:34:48.846Z,47.9
2023-02-20T05:36:02.653Z,47.9
2023-02-20T05:37:05.406Z,47.9
2023-02-20T05:38:18.722Z,47.9
2023-02-20T05:39:31.485Z,48.0
2023-02-20T05:40:45.159Z,47.9
2023-02-20T05:41:47.977Z,48.0
2023-02-20T05:43:01.660Z,48.0
2023-02-20T05:44:14.356Z,48.0
2023-02-20T05:45:17.640Z,48.0
2023-02-20T05:46:30.363Z,48.0
2023-02-20T05:47:44.205Z,48.0
2023-02-20T05:48:46.929Z,48.0
2023-02-20T05:50:00.655Z,48.0
2023-02-20T05:51:13.369Z,48.0
2023-02-20T05:52:26.685Z,48.2
2023-02-20T05:53:29.395Z,47.2
2023-02-20T05:54:42.719Z,44.2
2023-02-20T05:55:55.457Z,43.0
2023-02-20T05:57:09.190Z,41.5
2023-02-20T05:58:13.202Z,40.4
2023-02-20T05:59:26.700Z,39.6
2023-02-20T06:00:29.325Z,40.0
2023-02-20T06:01:42.671Z,40.9
2023-02-20T06:02:55.244Z,40.9
2023-02-20T06:04:08.742Z,40.7
2023-02-20T06:05:11.409Z,40.2
2023-02-20T06:06:24.685Z,39.9
2023-02-20T06:07:37.216Z,40.6
2023-02-20T06:08:51.016Z,40.9
2023-02-20T06:09:53.605Z,41.5
2023-02-20T06:11:06.645Z,41.8
2023-02-20T06:12:19.165Z,41.7
2023-02-20T06:13:22.681Z,41.9
2023-02-20T06:14:35.173Z,42.1
2023-02-20T06:15:48.772Z,42.0
2023-02-20T06:17:01.298Z,42.0
2023-02-20T06:18:04.714Z,41.7
2023-02-20T06:19:17.180Z,41.8
2023-02-20T06:20:30.702Z,41.9
2023-02-20T06:21:33.223Z,41.8
2023-02-20T06:22:46.692Z,40.5
2023-02-20T06:23:59.249Z,41.3
2023-02-20T06:25:14.128Z,42.0
2023-02-20T06:26:16.786Z,42.5
2023-02-20T06:27:30.291Z,42.7
2023-02-20T06:28:42.815Z,42.9
2023-02-20T06:29:47.580Z,41.9
2023-02-20T06:31:01.842Z,42.2
2023-02-20T06:32:05.775Z,42.2
2023-02-20T06:33:18.378Z,42.4
2023-02-20T06:34:31.709Z,42.1
2023-02-20T06:35:34.266Z,43.2
2023-02-20T06:36:47.690Z,43.0
2023-02-20T06:38:00.165Z,43.1
2023-02-20T06:39:13.207Z,42.8
2023-02-20T06:40:15.817Z,42.8
2023-02-20T06:41:29.192Z,41.9
2023-02-20T06:42:41.665Z,42.5
2023-02-20T06:43:54.673Z,43.2
2023-02-20T06:44:57.243Z,43.7
2023-02-20T06:46:10.976Z,43.4
2023-02-20T06:47:23.736Z,43.8
2023-02-20T06:48:27.226Z,42.9
2023-02-20T06:49:39.689Z,44.0
2023-02-20T06:50:53.194Z,43.9
2023-02-20T06:52:05.707Z,43.4
2023-02-20T06:53:09.173Z,44.0
2023-02-20T06:54:21.644Z,44.6
2023-02-20T06:55:34.671Z,44.9
2023-02-20T06:56:37.210Z,44.9
2023-02-20T06:57:50.698Z,44.2
2023-02-20T06:59:04.687Z,43.4
2023-02-20T07:00:08.219Z,44.0
2023-02-20T07:01:20.703Z,44.4
2023-02-20T07:02:34.180Z,44.2
2023-02-20T07:03:46.825Z,43.1
2023-02-20T07:04:50.210Z,43.4
2023-02-20T07:06:02.695Z,42.8
2023-02-20T07:07:16.214Z,41.8
2023-02-20T07:08:18.752Z,43.0
2023-02-20T07:09:32.226Z,43.4
2023-02-20T07:10:46.174Z,42.0
2023-02-20T07:11:49.691Z,43.2
2023-02-20T07:13:02.150Z,41.8
2023-02-20T07:14:15.282Z,41.6
2023-02-20T07:15:27.753Z,42.2
2023-02-20T07:16:31.173Z,43.0
2023-02-20T07:17:43.656Z,42.7
2023-02-20T07:18:56.715Z,41.5
2023-02-20T07:20:09.186Z,42.4
2023-02-20T07:21:12.689Z,41.9
2023-02-20T07:22:25.158Z,41.4
2023-02-20T07:23:38.232Z,41.5
2023-02-20T07:24:40.803Z,42.3
2023-02-20T07:25:54.191Z,41.3
2023-02-20T07:28:22.567Z,42.0
2023-02-20T07:29:25.105Z,41.6
2023-02-20T07:30:38.538Z,42.2
2023-02-20T07:31:41.478Z,42.5
2023-02-20T07:33:00.188Z,42.6
2023-02-20T07:34:02.727Z,42.6
2023-02-20T07:35:16.231Z,42.5
2023-02-20T07:36:28.673Z,42.5
2023-02-20T07:37:41.706Z,42.6
2023-02-20T07:38:44.092Z,42.5
2023-02-20T07:39:57.265Z,42.5
2023-02-20T07:41:09.621Z,42.5
2023-02-20T07:42:22.707Z,42.5
2023-02-20T07:43:24.990Z,42.4
2023-02-20T07:44:38.219Z,42.4
2023-02-20T07:45:50.497Z,42.4
2023-02-20T07:46:53.706Z,42.5
2023-02-20T07:48:05.899Z,42.3
2023-02-20T07:49:19.189Z,42.3
2023-02-20T07:50:31.558Z,42.3
2023-02-20T07:51:34.731Z,42.3
2023-02-20T07:52:47.156Z,42.2
2023-02-20T07:54:00.236Z,42.3
2023-02-20T07:55:12.601Z,42.2
2023-02-20T07:56:15.690Z,42.2
2023-02-20T07:57:28.042Z,42.2
2023-02-20T07:58:41.231Z,42.2
2023-02-20T07:59:53.592Z,42.3
2023-02-20T08:00:56.695Z,42.4
2023-02-20T08:02:09.041Z,42.4
2023-02-20T08:03:22.210Z,42.4
2023-02-20T08:04:24.658Z,42.4
2023-02-20T08:05:48.640Z,42.4
2023-02-20T08:06:51.790Z,42.4
2023-02-20T08:08:04.737Z,42.4
2023-02-20T08:09:07.222Z,42.3
2023-02-20T08:10:20.741Z,42.3
2023-02-20T08:11:33.096Z,42.3
2023-02-20T08:12:36.200Z,42.3
2023-02-20T08:13:48.528Z,42.2
2023-02-20T08:15:01.720Z,42.2
2023-02-20T08:16:14.497Z,42.2
2023-02-20T08:17:17.702Z,42.2
2023-02-20T08:18:30.024Z,42.1
2023-02-20T08:19:43.205Z,42.1
2023-02-20T08:20:45.619Z,42.1
2023-02-20T08:21:58.730Z,42.1
2023-02-20T08:23:11.044Z,42.1
2023-02-20T08:24:24.249Z,42.1
2023-02-20T08:25:26.685Z,42.1
2023-02-20T08:26:39.723Z,42.0
2023-02-20T08:27:52.064Z,42.0
2023-02-20T08:29:05.196Z,42.0
2023-02-20T08:30:07.781Z,41.9
2023-02-20T08:31:31.791Z,41.9
2023-02-20T08:32:34.986Z,41.9
2023-02-20T08:33:39.327Z,41.9
2023-02-20T08:34:51.603Z,41.8
2023-02-20T08:36:04.755Z,41.8
2023-02-20T08:37:07.247Z,41.7
2023-02-20T08:38:20.248Z,41.7
2023-02-20T08:39:32.570Z,41.7
2023-02-20T08:40:45.734Z,41.7
2023-02-20T08:41:48.168Z,41.6
2023-02-20T08:43:01.716Z,41.6
2023-02-20T08:44:14.303Z,41.6
2023-02-20T08:45:27.779Z,41.6
2023-02-20T08:46:31.413Z,41.5
2023-02-20T08:47:44.715Z,41.5
2023-02-20T08:48:57.048Z,41.5
2023-02-20T08:50:10.230Z,41.5
2023-02-20T08:51:12.733Z,41.5
2023-02-20T08:52:26.873Z,41.5
2023-02-20T08:53:29.278Z,41.5
2023-02-20T08:54:48.840Z,41.4
2023-02-20T08:55:52.176Z,41.5
2023-02-20T08:57:05.353Z,41.4
2023-02-20T08:58:19.015Z,41.3
2023-02-20T08:59:22.218Z,41.4
2023-02-20T09:00:34.650Z,41.3
2023-02-20T09:01:47.865Z,41.2
2023-02-20T09:02:50.392Z,41.2
2023-02-20T09:04:03.752Z,41.3
2023-02-20T09:05:16.046Z,41.3
2023-02-20T09:06:29.242Z,41.2
2023-02-20T09:07:31.615Z,41.2
2023-02-20T09:08:44.705Z,41.2
2023-02-20T09:09:57.141Z,41.2
2023-02-20T09:11:00.207Z,41.2
2023-02-20T09:12:17.425Z,41.2
2023-02-20T09:13:20.716Z,41.1
2023-02-20T09:14:33.029Z,41.1
2023-02-20T09:15:46.246Z,41.1
2023-02-20T09:16:58.549Z,41.1
2023-02-20T09:18:01.724Z,41.2
2023-02-20T09:19:14.027Z,41.2
2023-02-20T09:20:27.236Z,41.1
2023-02-20T09:21:29.632Z,40.0
2023-02-20T09:22:42.736Z,38.1
2023-02-20T09:23:55.255Z,36.6
2023-02-20T09:25:08.212Z,37.6
2023-02-20T09:26:10.889Z,38.3
2023-02-20T09:27:25.459Z,38.7
2023-02-20T09:28:37.796Z,39.0
2023-02-20T09:29:41.222Z,39.4
2023-02-20T09:30:53.589Z,39.8
2023-02-20T09:32:06.861Z,40.0
2023-02-20T09:33:19.333Z,40.1
2023-02-20T09:34:22.722Z,40.4
2023-02-20T09:35:35.077Z,40.4
2023-02-20T09:36:48.223Z,40.6
2023-02-20T09:38:00.611Z,40.7
2023-02-20T09:39:03.745Z,40.7
2023-02-20T09:40:16.150Z,40.9
2023-02-20T09:41:29.238Z,41.0
2023-02-20T09:42:31.662Z,41.0
2023-02-20T09:43:44.739Z,41.1
2023-02-20T09:44:57.237Z,41.1
2023-02-20T09:46:10.496Z,41.1
2023-02-20T09:47:13.117Z,41.2
2023-02-20T09:48:26.252Z,41.1
2023-02-20T09:49:38.595Z,41.3
2023-02-20T09:50:51.723Z,41.2
2023-02-20T09:51:54.123Z,41.3
2023-02-20T09:53:07.237Z,41.3
2023-02-20T09:54:19.539Z,41.3
2023-02-20T09:55:32.765Z,41.3
2023-02-20T09:56:35.187Z,41.4
2023-02-20T09:57:48.257Z,41.5
2023-02-20T09:59:00.543Z,41.5
2023-02-20T10:00:06.405Z,41.6
2023-02-20T10:01:19.010Z,41.9
2023-02-20T10:02:33.593Z,41.7
2023-02-20T10:03:36.162Z,41.6
2023-02-20T10:05:00.486Z,41.7
2023-02-20T10:05:54.011Z,41.7
2023-02-20T10:07:07.262Z,41.6
2023-02-20T10:08:29.355Z,41.5
2023-02-20T10:09:32.745Z,41.6
2023-02-20T10:10:35.155Z,41.5
2023-02-20T10:11:48.264Z,41.7
2023-02-20T10:13:00.562Z,41.5
2023-02-20T10:14:03.735Z,41.5
2023-02-20T10:15:16.020Z,41.6
2023-02-20T10:16:29.796Z,41.5
2023-02-20T10:17:43.509Z,41.7
2023-02-20T10:18:46.741Z,41.6
2023-02-20T10:19:59.029Z,41.6
2023-02-20T10:21:12.278Z,41.7
2023-02-20T10:22:14.662Z,41.8
2023-02-20T10:23:28.717Z,41.7
2023-02-20T10:24:41.161Z,41.7
2023-02-20T10:25:44.233Z,41.7
2023-02-20T10:26:56.498Z,41.8
2023-02-20T10:28:09.779Z,41.7
2023-02-20T10:29:22.122Z,41.7
2023-02-20T10:30:25.281Z,41.9
2023-02-20T10:31:37.818Z,41.9
2023-02-20T10:32:51.276Z,41.9
2023-02-20T10:33:53.664Z,41.9
2023-02-20T10:35:06.755Z,41.9
2023-02-20T10:36:19.042Z,41.8
2023-02-20T10:37:46.397Z,41.8
2023-02-20T10:38:39.905Z,41.9
2023-02-20T10:39:52.746Z,41.7
2023-02-20T10:40:55.147Z,41.8
2023-02-20T10:42:08.288Z,42.0
2023-02-20T10:43:20.572Z,42.1
2023-02-20T10:44:43.005Z,42.0
2023-02-20T10:45:42.682Z,41.9
2023-02-20T10:46:49.257Z,42.0
2023-02-20T10:48:02.786Z,42.1
2023-02-20T10:49:05.150Z,42.1
2023-02-20T10:50:18.275Z,42.2
2023-02-20T10:51:30.544Z,42.0
2023-02-20T10:52:43.781Z,42.1
2023-02-20T10:53:48.977Z,42.1
2023-02-20T10:55:06.497Z,42.2
2023-02-20T10:56:08.864Z,42.1
2023-02-20T10:57:22.295Z,42.2
2023-02-20T10:58:24.658Z,42.3
2023-02-20T10:59:37.787Z,42.3
2023-02-20T11:00:50.071Z,42.2
2023-02-20T11:01:53.361Z,42.1
2023-02-20T11:03:05.765Z,42.2
2023-02-20T11:04:18.862Z,42.2
2023-02-20T11:05:33.272Z,42.1
2023-02-20T11:06:37.303Z,41.9
2023-02-20T11:07:49.566Z,42.1
2023-02-20T11:08:52.786Z,42.1
2023-02-20T11:10:05.062Z,42.1
2023-02-20T11:11:18.759Z,42.1
2023-02-20T11:12:32.481Z,42.0
2023-02-20T11:13:35.775Z,42.1
2023-02-20T11:14:48.044Z,42.0
2023-02-20T11:16:01.399Z,41.9
2023-02-20T11:17:05.002Z,42.0
2023-02-20T11:18:18.271Z,42.0
2023-02-20T11:19:30.590Z,42.1
2023-02-20T11:20:33.752Z,42.2
2023-02-20T11:21:46.010Z,42.1
2023-02-20T11:22:59.256Z,42.2
2023-02-20T11:24:01.664Z,42.1
2023-02-20T11:25:14.810Z,42.3
2023-02-20T11:26:27.138Z,42.1
2023-02-20T11:27:41.543Z,42.4
2023-02-20T11:28:43.941Z,42.5
2023-02-20T11:29:56.760Z,42.5
2023-02-20T11:31:09.184Z,42.4
2023-02-20T11:32:12.851Z,42.3
2023-02-20T11:33:25.236Z,42.5
2023-02-20T11:34:39.280Z,42.4
2023-02-20T11:35:41.676Z,42.5
2023-02-20T11:36:54.798Z,42.5
2023-02-20T11:38:07.106Z,42.4
2023-02-20T11:39:20.310Z,42.4
2023-02-20T11:40:22.697Z,42.5
2023-02-20T11:41:35.772Z,42.4
2023-02-20T11:42:48.090Z,42.3
2023-02-20T11:44:01.795Z,42.5
2023-02-20T11:45:04.416Z,42.6
2023-02-20T11:46:17.311Z,42.6
2023-02-20T11:47:29.749Z,42.6
2023-02-20T11:48:32.787Z,42.7
2023-02-20T11:49:45.075Z,42.6
2023-02-20T11:50:58.278Z,42.6
2023-02-20T11:52:10.570Z,42.5
2023-02-20T11:53:13.778Z,42.7
2023-02-20T11:54:26.177Z,42.8
2023-02-20T11:55:42.481Z,42.6
2023-02-20T11:56:44.980Z,42.7
2023-02-20T11:59:25.248Z,42.6
2023-02-20T12:00:17.766Z,42.7
2023-02-20T12:01:30.797Z,42.7
2023-02-20T12:02:33.201Z,42.7
2023-02-20T12:03:46.329Z,42.8
2023-02-20T12:04:58.779Z,42.9
2023-02-20T12:06:12.256Z,42.9
2023-02-20T12:07:14.945Z,42.9
2023-02-20T12:08:28.301Z,42.8
2023-02-20T12:09:40.598Z,42.8
2023-02-20T12:10:53.793Z,42.7
2023-02-20T12:11:56.176Z,42.8
2023-02-20T12:13:09.319Z,42.7
2023-02-20T12:14:21.583Z,42.8
2023-02-20T12:15:25.327Z,42.8
2023-02-20T12:16:37.635Z,42.9
2023-02-20T12:17:50.865Z,42.9
2023-02-20T12:19:03.165Z,43.0
2023-02-20T12:20:06.340Z,42.9
2023-02-20T12:21:18.558Z,43.0
2023-02-20T12:22:31.287Z,42.9
2023-02-20T12:23:43.510Z,43.0
2023-02-20T12:24:46.802Z,42.7
2023-02-20T12:25:59.099Z,42.9
2023-02-20T12:27:12.286Z,42.7
2023-02-20T12:28:14.695Z,42.8
2023-02-20T12:29:27.849Z,42.9
2023-02-20T12:30:40.317Z,43.0
2023-02-20T12:31:53.404Z,43.2
2023-02-20T12:32:55.697Z,42.9
2023-02-20T12:34:08.283Z,43.1
2023-02-20T12:35:20.453Z,43.1
2023-02-20T12:36:33.794Z,43.1
2023-02-20T12:37:36.180Z,43.1
2023-02-20T12:38:49.826Z,42.9
2023-02-20T12:40:02.080Z,42.8
2023-02-20T12:41:15.307Z,42.9
2023-02-20T12:42:17.679Z,42.9
2023-02-20T12:43:30.869Z,42.9
2023-02-20T12:44:53.101Z,42.8
2023-02-20T12:45:56.312Z,42.9
2023-02-20T12:46:58.740Z,42.7
2023-02-20T12:48:11.830Z,42.9
2023-02-20T12:49:24.093Z,42.9
2023-02-20T12:50:27.308Z,43.0
2023-02-20T12:51:39.597Z,42.8
2023-02-20T12:52:52.832Z,42.8
2023-02-20T12:53:55.203Z,42.8
2023-02-20T12:55:08.328Z,42.7
2023-02-20T12:56:20.582Z,42.7
2023-02-20T12:57:33.821Z,42.9
2023-02-20T12:58:36.260Z,42.7
2023-02-20T13:00:09.382Z,42.7
2023-02-20T13:01:01.982Z,43.0
2023-02-20T13:02:15.318Z,42.8
2023-02-20T13:03:17.764Z,42.9
2023-02-20T13:04:30.818Z,42.9
2023-02-20T13:05:43.056Z,42.8
2023-02-20T13:06:46.337Z,42.7
2023-02-20T13:07:58.604Z,42.9
2023-02-20T13:09:11.810Z,42.8
2023-02-20T13:10:24.063Z,42.7
2023-02-20T13:11:27.318Z,42.8
2023-02-20T13:12:39.592Z,42.9
2023-02-20T13:13:52.799Z,42.7
2023-02-20T13:15:05.039Z,42.7
2023-02-20T13:16:08.306Z,42.8
2023-02-20T13:17:20.581Z,42.9
2023-02-20T13:18:33.835Z,42.8
2023-02-20T13:19:36.260Z,42.8
2023-02-20T13:20:49.319Z,42.8
2023-02-20T13:22:01.581Z,42.9
2023-02-20T13:23:14.850Z,42.8
2023-02-20T13:24:17.260Z,42.8
2023-02-20T13:25:30.810Z,42.6
2023-02-20T13:26:43.056Z,42.7
2023-02-20T13:27:56.310Z,42.9
2023-02-20T13:28:58.651Z,42.9
2023-02-20T13:30:11.910Z,42.9
2023-02-20T13:31:24.452Z,43.0
2023-02-20T13:32:27.838Z,42.9
2023-02-20T13:33:40.243Z,42.9
2023-02-20T13:34:53.307Z,42.9
2023-02-20T13:36:15.376Z,43.0
2023-02-20T13:37:08.822Z,43.1
2023-02-20T13:38:21.134Z,43.0
2023-02-20T13:39:34.304Z,42.9
2023-02-20T13:40:36.689Z,42.9
2023-02-20T13:41:49.824Z,42.9
2023-02-20T13:43:02.071Z,42.9
2023-02-20T13:44:15.321Z,43.0
2023-02-20T13:45:17.667Z,42.9
2023-02-20T13:46:30.812Z,43.1
2023-02-20T13:47:43.030Z,43.1
2023-02-20T13:48:55.813Z,43.0
2023-02-20T13:49:58.713Z,43.1
2023-02-20T13:51:11.807Z,43.2
2023-02-20T13:52:23.841Z,43.1
2023-02-20T13:53:46.841Z,43.2
2023-02-20T13:54:39.444Z,43.2
2023-02-20T13:55:52.321Z,43.2
2023-02-20T13:57:04.539Z,43.3
2023-02-20T13:58:07.823Z,43.3
2023-02-20T13:59:21.700Z,43.2
2023-02-20T14:00:34.822Z,43.4
2023-02-20T14:01:37.251Z,43.3
2023-02-20T14:02:50.367Z,43.3
2023-02-20T14:04:03.015Z,43.3
2023-02-20T14:05:25.807Z,43.2
2023-02-20T14:06:18.532Z,43.4
2023-02-20T14:07:31.846Z,43.3
2023-02-20T14:08:44.349Z,43.4
2023-02-20T14:09:47.441Z,43.3
2023-02-20T14:10:59.799Z,43.4
2023-02-20T14:12:13.362Z,43.4
2023-02-20T14:13:39.162Z,43.3
2023-02-20T14:14:33.854Z,43.3
2023-02-20T14:15:46.076Z,43.4
2023-02-20T14:16:49.350Z,43.4
2023-02-20T14:18:01.710Z,43.4
2023-02-20T14:19:14.826Z,43.6
2023-02-20T14:20:17.204Z,43.8
2023-02-20T14:21:30.330Z,43.7
2023-02-20T14:22:42.667Z,43.8
2023-02-20T14:23:55.847Z,44.0
2023-02-20T14:24:58.251Z,43.8
2023-02-20T14:26:11.342Z,43.9
2023-02-20T14:27:23.642Z,43.9
2023-02-20T14:28:36.867Z,43.9
2023-02-20T14:29:39.431Z,43.9
2023-02-20T14:30:52.476Z,43.9
2023-02-20T14:32:05.019Z,43.9
2023-02-20T14:33:08.345Z,44.0
2023-02-20T14:34:20.564Z,44.0
2023-02-20T14:35:33.844Z,44.0
2023-02-20T14:36:46.094Z,43.9
2023-02-20T14:37:49.336Z,44.0
2023-02-20T14:39:01.549Z,44.0
2023-02-20T14:40:14.884Z,43.9
2023-02-20T14:41:17.333Z,44.0
2023-02-20T14:42:30.320Z,44.1
2023-02-20T14:43:42.575Z,44.1
2023-02-20T14:45:05.338Z,44.1
2023-02-20T14:45:57.841Z,44.1
2023-02-20T14:47:10.833Z,44.2
2023-02-20T14:48:23.044Z,44.1
2023-02-20T14:49:36.873Z,44.1
2023-02-20T14:50:59.070Z,44.1
2023-02-20T14:51:52.517Z,44.1
2023-02-20T14:53:04.840Z,44.1
2023-02-20T14:54:07.948Z,44.1
2023-02-20T14:55:20.272Z,44.3
2023-02-20T14:56:34.307Z,44.1
2023-02-20T14:57:46.597Z,44.2
2023-02-20T14:58:49.865Z,44.1
2023-02-20T15:00:02.156Z,44.0
2023-02-20T15:01:15.421Z,44.2
2023-02-20T15:02:31.326Z,44.2
2023-02-20T15:03:36.430Z,44.2
2023-02-20T15:04:38.783Z,44.1
2023-02-20T15:05:51.892Z,44.2
2023-02-20T15:07:04.097Z,44.3
2023-02-20T15:08:17.359Z,44.2
2023-02-20T15:09:22.810Z,44.2
2023-02-20T15:10:36.378Z,44.3
2023-02-20T15:11:38.744Z,44.3
2023-02-20T15:12:51.835Z,44.2
2023-02-20T15:14:04.066Z,44.3
2023-02-20T15:15:17.347Z,44.4
2023-02-20T15:16:19.722Z,44.3
2023-02-20T15:17:32.858Z,44.3
2023-02-20T15:18:45.142Z,44.3
2023-02-20T15:19:48.345Z,44.3
2023-02-20T15:21:00.639Z,44.3
2023-02-20T15:22:13.850Z,44.3
2023-02-20T15:23:26.060Z,44.4
2023-02-20T15:24:29.370Z,44.4
2023-02-20T15:25:41.794Z,44.4
2023-02-20T15:26:54.893Z,44.4
2023-02-20T15:27:57.253Z,44.3
2023-02-20T15:29:10.351Z,44.5
2023-02-20T15:30:22.620Z,44.5
2023-02-20T15:31:35.990Z,44.5
2023-02-20T15:32:38.438Z,44.4
2023-02-20T15:33:51.397Z,44.4
2023-02-20T15:35:03.637Z,44.4